createdAt,value
2023-07-10T00:01:00.102Z,35.54
2023-07-10T00:02:00.062Z,35.56
2023-07-10T00:03:00.200Z,35.57
2023-07-10T00:04:00.302Z,35.62
2023-07-10T00:05:00.265Z,35.61
2023-07-10T00:06:00.300Z,35.65
2023-07-10T00:07:00.349Z,35.65
2023-07-10T00:08:00.423Z,35.69
2023-07-10T00:09:00.464Z,35.71
2023-07-10T00:10:00.533Z,35.74
2023-07-10T00:11:00.582Z,35.77
2023-07-10T00:12:00.618Z,35.76
2023-07-10T00:13:00.688Z,35.73
2023-07-10T00:14:00.812Z,35.82
2023-07-10T00:15:00.807Z,35.77
2023-07-10T00:16:00.940Z,35.78
2023-07-10T00:17:00.960Z,35.81
2023-07-10T00:18:01.021Z,35.85
2023-07-10T00:19:00.989Z,35.83
2023-07-10T00:20:01.087Z,35.85
2023-07-10T00:21:01.157Z,35.88
2023-07-10T00:22:01.159Z,35.90
2023-07-10T00:23:01.217Z,35.90
2023-07-10T00:24:01.299Z,35.92
2023-07-10T00:25:01.356Z,35.90
2023-07-10T00:26:01.539Z,35.92
2023-07-10T00:27:01.497Z,35.95
2023-07-10T00:28:01.509Z,35.95
2023-07-10T00:29:01.560Z,35.97
2023-07-10T00:30:01.637Z,35.95
2023-07-10T00:31:01.700Z,35.93
2023-07-10T00:32:01.734Z,35.93
2023-07-10T00:33:01.867Z,35.92
2023-07-10T00:34:01.841Z,35.95
2023-07-10T00:35:01.920Z,35.99
2023-07-10T00:36:02.116Z,35.96
2023-07-10T00:37:02.038Z,35.96
2023-07-10T00:38:02.208Z,35.96
2023-07-10T00:39:02.145Z,36.00
2023-07-10T00:40:02.174Z,35.97
2023-07-10T00:41:02.237Z,35.99
2023-07-10T00:42:02.292Z,36.08
2023-07-10T00:43:02.333Z,36.03
2023-07-10T00:44:02.425Z,36.09
2023-07-10T00:45:02.431Z,36.06
2023-07-10T00:46:02.670Z,36.09
2023-07-10T00:47:02.661Z,36.22
2023-07-10T00:48:02.672Z,36.28
2023-07-10T00:49:02.686Z,36.26
2023-07-10T00:50:02.744Z,36.21
2023-07-10T00:51:02.767Z,36.22
2023-07-10T00:52:02.840Z,36.28
2023-07-10T00:53:02.873Z,36.26
2023-07-10T00:54:02.922Z,36.30
2023-07-10T00:55:03.007Z,36.29
2023-07-10T00:56:03.259Z,36.27
2023-07-10T00:57:03.102Z,36.35
2023-07-10T00:58:05.087Z,36.40
2023-07-10T00:59:03.128Z,36.35
2023-07-10T01:00:03.142Z,36.38
2023-07-10T01:01:03.167Z,36.39
2023-07-10T01:02:03.178Z,36.36
2023-07-10T01:03:03.152Z,36.39
2023-07-10T01:04:03.118Z,36.39
2023-07-10T01:05:03.097Z,36.43
2023-07-10T01:06:03.411Z,36.45
2023-07-10T01:07:03.069Z,36.41
2023-07-10T01:08:03.058Z,36.44
2023-07-10T01:09:03.054Z,36.43
2023-07-10T01:10:03.046Z,36.44
2023-07-10T01:11:03.061Z,36.44
2023-07-10T01:12:03.037Z,36.43
2023-07-10T01:13:03.029Z,36.48
2023-07-10T01:14:03.093Z,36.46
2023-07-10T01:15:03.029Z,36.48
2023-07-10T01:16:03.260Z,36.43
2023-07-10T01:17:03.118Z,36.48
2023-07-10T01:18:03.085Z,36.48
2023-07-10T01:19:03.009Z,36.45
2023-07-10T01:20:02.966Z,36.48
2023-07-10T01:21:03.002Z,36.46
2023-07-10T01:22:02.990Z,36.44
2023-07-10T01:23:02.958Z,36.43
2023-07-10T01:24:02.954Z,36.40
2023-07-10T01:25:02.975Z,36.44
2023-07-10T01:26:03.171Z,36.43
2023-07-10T01:27:02.924Z,36.44
2023-07-10T01:28:02.928Z,36.39
2023-07-10T01:29:03.000Z,36.39
2023-07-10T01:30:03.042Z,36.45
2023-07-10T01:31:03.137Z,36.42
2023-07-10T01:32:03.148Z,36.39
2023-07-10T01:33:03.242Z,36.44
2023-07-10T01:34:03.282Z,36.42
2023-07-10T01:35:03.332Z,36.39
2023-07-10T01:36:03.743Z,36.40
2023-07-10T01:37:03.405Z,36.38
2023-07-10T01:38:03.494Z,36.40
2023-07-10T01:39:03.525Z,36.39
2023-07-10T01:40:03.554Z,36.38
2023-07-10T01:41:03.618Z,36.36
2023-07-10T01:42:03.687Z,36.34
2023-07-10T01:43:03.728Z,36.41
2023-07-10T01:44:03.807Z,36.40
2023-07-10T01:45:03.838Z,36.39
2023-07-10T01:46:04.093Z,36.43
2023-07-10T01:47:03.977Z,36.41
2023-07-10T01:48:04.186Z,36.40
2023-07-10T01:49:04.115Z,36.41
2023-07-10T01:50:04.100Z,36.45
2023-07-10T01:51:04.192Z,36.46
2023-07-10T01:52:04.241Z,36.49
2023-07-10T01:53:04.296Z,36.63
2023-07-10T01:54:04.333Z,36.67
2023-07-10T01:55:04.409Z,36.54
2023-07-10T01:56:04.699Z,36.56
2023-07-10T01:57:04.484Z,36.63
2023-07-10T01:58:04.567Z,36.58
2023-07-10T01:59:04.619Z,36.60
2023-07-10T02:00:04.671Z,36.60
2023-07-10T02:01:04.752Z,36.63
2023-07-10T02:02:04.796Z,36.58
2023-07-10T02:03:04.890Z,36.62
2023-07-10T02:04:04.967Z,36.61
2023-07-10T02:05:04.939Z,36.60
2023-07-10T02:06:05.255Z,36.66
2023-07-10T02:07:05.115Z,36.64
2023-07-10T02:08:05.116Z,36.72
2023-07-10T02:09:05.189Z,36.66
2023-07-10T02:10:05.262Z,36.71
2023-07-10T02:11:05.325Z,36.74
2023-07-10T02:12:05.392Z,36.76
2023-07-10T02:13:05.449Z,36.77
2023-07-10T02:14:05.512Z,36.81
2023-07-10T02:15:05.546Z,36.77
2023-07-10T02:16:05.795Z,36.85
2023-07-10T02:17:05.735Z,36.75
2023-07-10T02:18:05.726Z,36.73
2023-07-10T02:19:05.780Z,36.81
2023-07-10T02:20:05.854Z,36.79
2023-07-10T02:21:05.886Z,36.78
2023-07-10T02:22:05.971Z,36.83
2023-07-10T02:23:06.038Z,36.85
2023-07-10T02:24:06.081Z,36.85
2023-07-10T02:25:06.116Z,36.87
2023-07-10T02:26:06.415Z,36.89
2023-07-10T02:27:06.262Z,36.88
2023-07-10T02:28:06.299Z,36.92
2023-07-10T02:29:06.364Z,36.92
2023-07-10T02:30:06.455Z,36.81
2023-07-10T02:31:06.511Z,36.87
2023-07-10T02:32:06.565Z,36.88
2023-07-10T02:33:06.601Z,36.89
2023-07-10T02:34:06.648Z,36.88
2023-07-10T02:35:06.742Z,36.86
2023-07-10T02:36:07.117Z,36.85
2023-07-10T02:37:06.847Z,36.87
2023-07-10T02:38:06.930Z,36.87
2023-07-10T02:39:06.991Z,36.87
2023-07-10T02:40:07.015Z,36.87
2023-07-10T02:41:07.078Z,36.81
2023-07-10T02:42:07.146Z,36.85
2023-07-10T02:43:07.193Z,36.79
2023-07-10T02:44:07.234Z,36.78
2023-07-10T02:45:07.326Z,36.82
2023-07-10T02:46:07.661Z,36.83
2023-07-10T02:47:07.425Z,36.87
2023-07-10T02:48:07.502Z,36.79
2023-07-10T02:49:07.530Z,36.93
2023-07-10T02:50:07.649Z,36.95
2023-07-10T02:51:07.757Z,37.01
2023-07-10T02:52:07.769Z,36.98
2023-07-10T02:53:07.832Z,37.14
2023-07-10T02:54:07.875Z,37.08
2023-07-10T02:55:07.932Z,37.01
2023-07-10T02:56:08.356Z,37.13
2023-07-10T02:57:08.024Z,37.08
2023-07-10T02:58:08.067Z,37.07
2023-07-10T02:59:08.105Z,37.08
2023-07-10T03:00:08.189Z,37.06
2023-07-10T03:01:08.282Z,37.08
2023-07-10T03:02:08.281Z,37.08
2023-07-10T03:03:08.362Z,37.09
2023-07-10T03:04:08.403Z,37.11
2023-07-10T03:05:08.503Z,37.11
2023-07-10T03:06:08.559Z,37.13
2023-07-10T03:07:08.598Z,37.16
2023-07-10T03:08:08.673Z,37.19
2023-07-10T03:09:08.692Z,37.13
2023-07-10T03:10:08.781Z,37.15
2023-07-10T03:11:08.833Z,37.12
2023-07-10T03:12:08.860Z,37.17
2023-07-10T03:13:08.925Z,37.10
2023-07-10T03:14:09.132Z,37.10
2023-07-10T03:15:09.032Z,37.12
2023-07-10T03:16:09.436Z,37.07
2023-07-10T03:17:09.169Z,37.11
2023-07-10T03:18:09.230Z,37.08
2023-07-10T03:19:09.287Z,37.11
2023-07-10T03:20:09.328Z,37.12
2023-07-10T03:21:09.380Z,37.10
2023-07-10T03:22:09.415Z,37.07
2023-07-10T03:23:09.474Z,37.08
2023-07-10T03:24:09.521Z,37.08
2023-07-10T03:25:09.607Z,37.06
2023-07-10T03:26:09.669Z,37.03
2023-07-10T03:27:09.726Z,37.05
2023-07-10T03:28:09.784Z,37.12
2023-07-10T03:29:09.845Z,37.07
2023-07-10T03:30:09.921Z,37.13
2023-07-10T03:31:10.009Z,37.08
2023-07-10T03:32:10.019Z,37.08
2023-07-10T03:33:10.060Z,37.11
2023-07-10T03:34:10.144Z,37.15
2023-07-10T03:35:10.176Z,37.09
2023-07-10T03:36:10.262Z,37.10
2023-07-10T03:37:10.305Z,37.07
2023-07-10T03:38:10.495Z,37.06
2023-07-10T03:39:10.548Z,37.08
2023-07-10T03:40:10.512Z,37.06
2023-07-10T03:41:10.607Z,37.05
2023-07-10T03:42:10.589Z,37.06
2023-07-10T03:43:10.682Z,37.05
2023-07-10T03:44:10.747Z,37.06
2023-07-10T03:45:10.818Z,37.03
2023-07-10T03:46:10.892Z,37.08
2023-07-10T03:47:10.945Z,37.11
2023-07-10T03:48:10.959Z,37.10
2023-07-10T03:49:10.996Z,37.12
2023-07-10T03:50:11.075Z,37.12
2023-07-10T03:51:11.152Z,37.13
2023-07-10T03:52:11.186Z,37.13
2023-07-10T03:53:11.243Z,37.22
2023-07-10T03:54:11.313Z,37.17
2023-07-10T03:55:11.374Z,37.20
2023-07-10T03:56:11.451Z,37.24
2023-07-10T03:57:11.483Z,37.23
2023-07-10T03:58:11.519Z,37.24
2023-07-10T03:59:11.551Z,37.25
2023-07-10T04:00:11.568Z,37.26
2023-07-10T04:01:11.634Z,37.22
2023-07-10T04:02:11.649Z,37.28
2023-07-10T04:03:11.763Z,37.24
2023-07-10T04:04:11.728Z,37.28
2023-07-10T04:05:11.777Z,37.29
2023-07-10T04:06:11.893Z,37.29
2023-07-10T04:07:11.915Z,37.27
2023-07-10T04:08:11.993Z,37.28
2023-07-10T04:09:12.063Z,37.28
2023-07-10T04:10:12.088Z,37.29
2023-07-10T04:11:12.184Z,37.23
2023-07-10T04:12:12.217Z,37.26
2023-07-10T04:13:12.275Z,37.28
2023-07-10T04:14:12.382Z,37.32
2023-07-10T04:15:12.387Z,37.25
2023-07-10T04:16:12.492Z,37.24
2023-07-10T04:17:12.524Z,37.18
2023-07-10T04:18:12.562Z,37.20
2023-07-10T04:19:12.627Z,37.20
2023-07-10T04:20:12.687Z,37.23
2023-07-10T04:21:12.762Z,37.19
2023-07-10T04:22:12.810Z,37.18
2023-07-10T04:23:12.860Z,37.16
2023-07-10T04:24:12.921Z,37.24
2023-07-10T04:25:12.930Z,37.17
2023-07-10T04:26:12.996Z,37.23
2023-07-10T04:27:13.039Z,37.24
2023-07-10T04:28:13.113Z,37.29
2023-07-10T04:29:13.147Z,37.29
2023-07-10T04:30:13.194Z,37.29
2023-07-10T04:31:13.270Z,37.31
2023-07-10T04:32:13.245Z,37.38
2023-07-10T04:33:13.288Z,37.30
2023-07-10T04:34:13.350Z,37.31
2023-07-10T04:35:13.309Z,37.35
2023-07-10T04:36:13.375Z,37.36
2023-07-10T04:37:13.377Z,37.44
2023-07-10T04:38:13.397Z,37.36
2023-07-10T04:39:13.446Z,37.34
2023-07-10T04:40:13.438Z,37.33
2023-07-10T04:41:13.438Z,37.33
2023-07-10T04:42:13.428Z,37.37
2023-07-10T04:43:13.389Z,37.33
2023-07-10T04:44:13.403Z,37.35
2023-07-10T04:45:13.392Z,37.35
2023-07-10T04:46:13.479Z,37.34
2023-07-10T04:47:13.529Z,37.36
2023-07-10T04:48:13.610Z,37.34
2023-07-10T04:49:13.548Z,37.34
2023-07-10T04:50:13.546Z,37.37
2023-07-10T04:51:13.625Z,37.30
2023-07-10T04:52:13.613Z,37.28
2023-07-10T04:53:13.651Z,37.32
2023-07-10T04:54:14.001Z,37.28
2023-07-10T04:55:13.693Z,37.32
2023-07-10T04:56:13.699Z,37.30
2023-07-10T04:57:13.776Z,37.28
2023-07-10T04:58:13.764Z,37.29
2023-07-10T04:59:13.788Z,37.32
2023-07-10T05:00:13.823Z,37.30
2023-07-10T05:01:13.857Z,37.34
2023-07-10T05:02:13.965Z,37.34
2023-07-10T05:03:13.910Z,37.34
2023-07-10T05:04:13.972Z,37.32
2023-07-10T05:05:13.964Z,37.35
2023-07-10T05:06:13.977Z,37.31
2023-07-10T05:07:13.978Z,37.31
2023-07-10T05:08:14.022Z,37.30
2023-07-10T05:09:14.024Z,37.31
2023-07-10T05:10:14.099Z,37.29
2023-07-10T05:11:14.131Z,37.29
2023-07-10T05:12:14.188Z,37.29
2023-07-10T05:13:14.231Z,37.25
2023-07-10T05:14:14.283Z,37.29
2023-07-10T05:15:14.301Z,37.26
2023-07-10T05:16:14.414Z,37.20
2023-07-10T05:17:14.433Z,37.24
2023-07-10T05:18:14.440Z,37.20
2023-07-10T05:19:14.486Z,37.16
2023-07-10T05:20:14.499Z,37.16
2023-07-10T05:21:14.534Z,37.19
2023-07-10T05:22:14.603Z,37.20
2023-07-10T05:23:14.627Z,37.16
2023-07-10T05:24:14.696Z,37.14
2023-07-10T05:25:14.745Z,37.11
2023-07-10T05:26:14.827Z,37.19
2023-07-10T05:27:14.864Z,37.18
2023-07-10T05:28:14.946Z,37.18
2023-07-10T05:29:14.972Z,37.15
2023-07-10T05:30:15.007Z,37.23
2023-07-10T05:31:15.149Z,37.24
2023-07-10T05:32:15.149Z,37.22
2023-07-10T05:33:15.219Z,37.15
2023-07-10T05:34:15.204Z,37.22
2023-07-10T05:35:15.257Z,37.16
2023-07-10T05:36:15.309Z,37.21
2023-07-10T05:37:15.330Z,37.25
2023-07-10T05:38:15.332Z,37.25
2023-07-10T05:39:15.371Z,37.21
2023-07-10T05:40:15.410Z,37.23
2023-07-10T05:41:15.504Z,37.24
2023-07-10T05:42:15.525Z,37.21
2023-07-10T05:43:15.561Z,37.21
2023-07-10T05:44:15.638Z,37.20
2023-07-10T05:45:15.670Z,37.26
2023-07-10T05:46:15.798Z,37.20
2023-07-10T05:47:15.837Z,37.23
2023-07-10T05:48:18.092Z,37.22
2023-07-10T05:49:16.020Z,37.23
2023-07-10T05:50:16.098Z,37.22
2023-07-10T05:51:16.156Z,37.21
2023-07-10T05:52:16.200Z,37.26
2023-07-10T05:53:16.238Z,37.23
2023-07-10T05:54:16.325Z,37.21
2023-07-10T05:55:16.336Z,37.19
2023-07-10T05:56:16.412Z,37.29
2023-07-10T05:57:16.449Z,37.34
2023-07-10T05:58:16.545Z,37.43
2023-07-10T05:59:16.568Z,37.36
2023-07-10T06:00:16.620Z,37.30
2023-07-10T06:01:16.673Z,37.37
2023-07-10T06:02:16.762Z,37.43
2023-07-10T06:03:16.834Z,37.40
2023-07-10T06:04:16.880Z,37.30
2023-07-10T06:05:16.901Z,37.53
2023-07-10T06:06:16.954Z,37.41
2023-07-10T06:07:16.963Z,37.42
2023-07-10T06:08:17.045Z,37.41
2023-07-10T06:09:17.075Z,37.47
2023-07-10T06:10:17.108Z,37.41
2023-07-10T06:11:17.148Z,37.53
2023-07-10T06:12:17.192Z,37.50
2023-07-10T06:13:17.159Z,37.49
2023-07-10T06:14:17.258Z,37.49
2023-07-10T06:15:17.868Z,37.45
2023-07-10T06:16:17.239Z,37.45
2023-07-10T06:17:17.252Z,37.43
2023-07-10T06:18:17.281Z,37.38
2023-07-10T06:19:17.299Z,37.41
2023-07-10T06:20:17.344Z,37.36
2023-07-10T06:21:17.371Z,37.37
2023-07-10T06:22:17.370Z,37.44
2023-07-10T06:23:17.406Z,37.42
2023-07-10T06:24:17.455Z,37.37
2023-07-10T06:25:17.486Z,37.47
2023-07-10T06:26:17.531Z,37.40
2023-07-10T06:27:17.563Z,37.37
2023-07-10T06:28:17.605Z,37.37
2023-07-10T06:29:17.693Z,37.37
2023-07-10T06:30:17.643Z,37.37
2023-07-10T06:31:17.724Z,37.39
2023-07-10T06:32:17.784Z,37.40
2023-07-10T06:33:17.774Z,37.33
2023-07-10T06:34:17.862Z,37.36
2023-07-10T06:35:17.899Z,37.46
2023-07-10T06:36:17.929Z,37.44
2023-07-10T06:37:17.967Z,37.45
2023-07-10T06:38:18.028Z,37.43
2023-07-10T06:39:18.049Z,37.44
2023-07-10T06:40:18.116Z,37.41
2023-07-10T06:41:18.083Z,37.46
2023-07-10T06:42:18.102Z,37.37
2023-07-10T06:43:18.147Z,37.37
2023-07-10T06:44:18.168Z,37.42
2023-07-10T06:45:18.289Z,37.62
2023-07-10T06:46:18.226Z,37.59
2023-07-10T06:47:18.204Z,37.72
2023-07-10T06:48:18.247Z,37.73
2023-07-10T06:49:18.253Z,37.71
2023-07-10T06:50:18.271Z,38.02
2023-07-10T06:51:18.263Z,37.97
2023-07-10T06:52:18.290Z,38.04
2023-07-10T06:53:26.460Z,38.55
2023-07-10T06:54:19.294Z,38.37
2023-07-10T06:55:18.283Z,38.52
2023-07-10T06:56:18.284Z,38.33
2023-07-10T06:57:18.292Z,38.25
2023-07-10T06:58:18.264Z,38.54
2023-07-10T06:59:18.270Z,38.58
2023-07-10T07:00:18.258Z,38.47
2023-07-10T07:01:18.259Z,38.71
2023-07-10T07:02:18.267Z,38.88
2023-07-10T07:03:18.401Z,39.16
2023-07-10T07:04:18.246Z,39.45
2023-07-10T07:05:18.245Z,39.65
2023-07-10T07:06:18.216Z,39.77
2023-07-10T07:07:18.214Z,39.55
2023-07-10T07:08:18.199Z,39.41
2023-07-10T07:09:18.210Z,39.37
2023-07-10T07:10:18.214Z,39.11
2023-07-10T07:11:18.179Z,39.30
2023-07-10T07:12:18.191Z,39.11
2023-07-10T07:13:21.273Z,39.33
2023-07-10T07:14:18.202Z,39.13
2023-07-10T07:15:18.143Z,39.03
2023-07-10T07:16:18.164Z,39.30
2023-07-10T07:17:18.122Z,39.45
2023-07-10T07:18:18.120Z,39.81
2023-07-10T07:19:18.114Z,39.93
2023-07-10T07:20:18.156Z,40.06
2023-07-10T07:21:18.135Z,39.61
2023-07-10T07:22:18.091Z,39.94
2023-07-10T07:23:18.098Z,39.38
2023-07-10T07:24:18.119Z,39.34
2023-07-10T07:25:18.098Z,39.69
2023-07-10T07:26:18.090Z,39.32
2023-07-10T07:27:18.124Z,39.25
2023-07-10T07:28:18.046Z,39.19
2023-07-10T07:29:18.052Z,39.50
2023-07-10T07:30:18.073Z,39.11
2023-07-10T07:31:18.126Z,39.04
2023-07-10T07:32:18.038Z,39.21
2023-07-10T07:33:18.015Z,38.66
2023-07-10T07:34:18.007Z,39.05
2023-07-10T07:35:18.008Z,38.94
2023-07-10T07:36:18.012Z,38.46
2023-07-10T07:37:18.016Z,39.05
2023-07-10T07:38:18.005Z,38.68
2023-07-10T07:39:17.962Z,38.60
2023-07-10T07:40:17.953Z,38.36
2023-07-10T07:41:17.953Z,38.11
2023-07-10T07:42:17.969Z,37.77
2023-07-10T07:43:17.981Z,37.60
2023-07-10T07:44:18.918Z,37.38
2023-07-10T07:45:17.963Z,37.36
2023-07-10T07:46:17.940Z,37.21
2023-07-10T07:47:17.983Z,37.02
2023-07-10T07:48:17.949Z,36.76
2023-07-10T07:49:17.933Z,36.47
2023-07-10T07:50:17.970Z,36.34
2023-07-10T07:51:17.982Z,36.58
2023-07-10T07:52:17.983Z,36.09
2023-07-10T07:53:18.031Z,36.12
2023-07-10T07:54:18.094Z,36.00
2023-07-10T07:55:18.152Z,36.02
2023-07-10T07:56:18.147Z,35.96
2023-07-10T07:57:18.138Z,35.70
2023-07-10T07:58:18.139Z,35.71
2023-07-10T07:59:18.183Z,35.82
2023-07-10T08:00:20.684Z,35.79
2023-07-10T08:01:18.192Z,35.79
2023-07-10T08:02:18.170Z,35.78
2023-07-10T08:03:18.331Z,35.77
2023-07-10T08:04:18.235Z,35.88
2023-07-10T08:05:34.292Z,35.89
2023-07-10T08:06:19.180Z,35.94
2023-07-10T08:07:18.157Z,35.98
2023-07-10T08:08:18.144Z,36.11
2023-07-10T08:09:18.136Z,36.16
2023-07-10T08:10:18.136Z,36.23
2023-07-10T08:11:18.108Z,36.21
2023-07-10T08:12:18.134Z,36.26
2023-07-10T08:13:18.109Z,36.40
2023-07-10T08:14:18.229Z,36.41
2023-07-10T08:15:18.129Z,36.43
2023-07-10T08:16:18.169Z,36.34
2023-07-10T08:17:18.070Z,35.77
2023-07-10T08:18:18.094Z,35.84
2023-07-10T08:19:18.068Z,35.70
2023-07-10T08:20:18.085Z,35.72
2023-07-10T08:21:18.078Z,35.28
2023-07-10T08:22:18.061Z,35.13
2023-07-10T08:23:18.078Z,35.05
2023-07-10T08:24:18.112Z,35.08
2023-07-10T08:25:18.165Z,34.94
2023-07-10T08:26:18.195Z,34.89
2023-07-10T08:27:18.179Z,34.83
2023-07-10T08:28:18.167Z,34.75
2023-07-10T08:29:18.166Z,34.85
2023-07-10T08:30:18.169Z,34.87
2023-07-10T08:31:18.341Z,34.85
2023-07-10T08:32:18.184Z,34.86
2023-07-10T08:33:18.279Z,34.78
2023-07-10T08:34:18.225Z,34.65
2023-07-10T08:35:18.279Z,34.72
2023-07-10T08:36:18.304Z,34.66
2023-07-10T08:37:18.349Z,34.65
2023-07-10T08:38:18.367Z,34.66
2023-07-10T08:39:18.402Z,34.66
2023-07-10T08:40:18.442Z,34.69
2023-07-10T08:41:18.441Z,34.68
2023-07-10T08:42:18.497Z,34.72
2023-07-10T08:43:18.558Z,34.73
2023-07-10T08:44:18.561Z,34.81
2023-07-10T08:45:18.595Z,34.83
2023-07-10T08:46:18.690Z,34.84
2023-07-10T08:47:18.657Z,34.82
2023-07-10T08:48:18.693Z,34.84
2023-07-10T08:49:18.700Z,34.91
2023-07-10T08:50:18.725Z,34.87
2023-07-10T08:51:18.799Z,34.92
2023-07-10T08:52:18.882Z,34.91
2023-07-10T08:53:18.903Z,34.90
2023-07-10T08:54:18.952Z,34.77
2023-07-10T08:55:19.058Z,34.85
2023-07-10T08:56:19.105Z,34.81
2023-07-10T08:57:19.169Z,34.81
2023-07-10T08:58:19.247Z,34.76
2023-07-10T08:59:19.294Z,34.78
2023-07-10T09:00:19.340Z,34.69
2023-07-10T09:01:19.460Z,34.69
2023-07-10T09:02:19.531Z,34.69
2023-07-10T09:03:19.536Z,34.73
2023-07-10T09:04:19.627Z,34.59
2023-07-10T09:05:19.646Z,34.67
2023-07-10T09:06:19.710Z,34.68
2023-07-10T09:07:19.754Z,34.72
2023-07-10T09:08:19.792Z,34.69
2023-07-10T09:09:19.882Z,34.67
2023-07-10T09:10:19.956Z,34.68
2023-07-10T09:11:20.047Z,34.61
2023-07-10T09:12:20.051Z,34.63
2023-07-10T09:13:20.148Z,34.63
2023-07-10T09:14:20.171Z,34.68
2023-07-10T09:15:20.245Z,34.74
2023-07-10T09:16:20.345Z,34.82
2023-07-10T09:17:20.382Z,34.98
2023-07-10T09:18:20.408Z,34.99
2023-07-10T09:19:20.496Z,34.90
2023-07-10T09:20:20.569Z,34.94
2023-07-10T09:21:20.590Z,34.79
2023-07-10T09:22:20.639Z,34.72
2023-07-10T09:23:20.704Z,34.71
2023-07-10T09:24:20.750Z,34.76
2023-07-10T09:25:20.801Z,34.76
2023-07-10T09:26:20.848Z,34.83
2023-07-10T09:27:20.936Z,34.77
2023-07-10T09:28:20.976Z,34.85
2023-07-10T09:29:21.012Z,34.83
2023-07-10T09:30:21.173Z,34.84
2023-07-10T09:31:21.171Z,34.97
2023-07-10T09:32:21.237Z,35.05
2023-07-10T09:33:21.253Z,36.55
2023-07-10T09:34:21.306Z,36.69
2023-07-10T09:35:21.324Z,37.20
2023-07-10T09:36:21.386Z,37.34
2023-07-10T09:37:21.445Z,37.01
2023-07-10T09:38:21.484Z,37.20
2023-07-10T09:39:21.527Z,36.93
2023-07-10T09:40:21.586Z,36.56
2023-07-10T09:41:21.654Z,36.13
2023-07-10T09:42:21.665Z,35.97
2023-07-10T09:43:21.737Z,35.79
2023-07-10T09:44:21.810Z,35.80
2023-07-10T09:45:21.852Z,35.65
2023-07-10T09:46:21.929Z,35.66
2023-07-10T09:47:22.005Z,35.58
2023-07-10T09:48:21.996Z,35.56
2023-07-10T09:49:22.096Z,35.48
2023-07-10T09:50:22.146Z,35.48
2023-07-10T09:51:22.216Z,35.46
2023-07-10T09:52:22.241Z,35.44
2023-07-10T09:53:22.283Z,35.51
2023-07-10T09:54:22.369Z,35.55
2023-07-10T09:55:22.387Z,35.60
2023-07-10T09:56:22.469Z,35.63
2023-07-10T09:57:22.495Z,35.68
2023-07-10T09:58:22.577Z,35.64
2023-07-10T09:59:22.633Z,35.83
2023-07-10T10:00:22.708Z,35.83
2023-07-10T10:01:22.807Z,35.66
2023-07-10T10:02:22.877Z,35.72
2023-07-10T10:03:22.813Z,35.73
2023-07-10T10:04:22.849Z,35.73
2023-07-10T10:05:22.880Z,35.60
2023-07-10T10:06:22.956Z,35.56
2023-07-10T10:07:22.994Z,35.47
2023-07-10T10:08:23.020Z,35.69
2023-07-10T10:09:23.049Z,35.55
2023-07-10T10:10:23.128Z,35.61
2023-07-10T10:11:23.153Z,35.51
2023-07-10T10:12:23.332Z,35.44
2023-07-10T10:13:25.301Z,35.61
2023-07-10T10:14:23.237Z,35.41
2023-07-10T10:15:23.216Z,35.40
2023-07-10T10:16:23.332Z,35.32
2023-07-10T10:17:23.218Z,35.33
2023-07-10T10:18:23.311Z,35.46
2023-07-10T10:19:23.180Z,35.62
2023-07-10T10:20:23.191Z,35.56
2023-07-10T10:21:23.212Z,35.43
2023-07-10T10:22:23.144Z,35.43
2023-07-10T10:23:23.145Z,35.48
2023-07-10T10:24:23.146Z,35.30
2023-07-10T10:25:23.137Z,35.29
2023-07-10T10:26:23.137Z,35.33
2023-07-10T10:27:23.153Z,35.31
2023-07-10T10:28:23.158Z,35.39
2023-07-10T10:29:23.147Z,35.39
2023-07-10T10:30:23.131Z,35.35
2023-07-10T10:31:23.138Z,35.30
2023-07-10T10:32:23.092Z,35.40
2023-07-10T10:33:23.099Z,35.31
2023-07-10T10:34:23.093Z,35.29
2023-07-10T10:35:23.081Z,35.19
2023-07-10T10:36:23.070Z,35.20
2023-07-10T10:37:23.106Z,35.43
2023-07-10T10:38:23.058Z,35.39
2023-07-10T10:39:23.162Z,35.24
2023-07-10T10:40:23.092Z,35.35
2023-07-10T10:41:23.057Z,35.39
2023-07-10T10:42:23.047Z,35.28
2023-07-10T10:43:23.022Z,35.20
2023-07-10T10:44:23.033Z,35.38
2023-07-10T10:45:23.027Z,35.44
2023-07-10T10:46:23.111Z,35.30
2023-07-10T10:47:23.015Z,35.29
2023-07-10T10:48:23.001Z,35.25
2023-07-10T10:49:23.005Z,35.35
2023-07-10T10:50:23.005Z,35.22
2023-07-10T10:51:23.031Z,35.32
2023-07-10T10:52:22.976Z,35.28
2023-07-10T10:53:22.948Z,35.25
2023-07-10T10:54:32.334Z,35.23
2023-07-10T10:55:23.966Z,35.23
2023-07-10T10:56:22.966Z,35.22
2023-07-10T10:57:22.934Z,35.34
2023-07-10T10:58:22.925Z,35.28
2023-07-10T10:59:22.903Z,35.23
2023-07-10T11:00:22.909Z,35.34
2023-07-10T11:01:22.944Z,35.33
2023-07-10T11:02:22.946Z,35.22
2023-07-10T11:03:22.958Z,35.19
2023-07-10T11:04:22.857Z,35.17
2023-07-10T11:05:22.884Z,35.27
2023-07-10T11:06:22.893Z,35.32
2023-07-10T11:07:22.873Z,35.23
2023-07-10T11:08:25.144Z,35.17
2023-07-10T11:09:22.821Z,35.12
2023-07-10T11:10:22.837Z,35.16
2023-07-10T11:11:22.834Z,35.07
2023-07-10T11:12:22.840Z,35.24
2023-07-10T11:13:22.829Z,35.26
2023-07-10T11:14:25.275Z,35.21
2023-07-10T11:15:22.813Z,35.20
2023-07-10T11:16:22.846Z,35.29
2023-07-10T11:17:22.848Z,35.13
2023-07-10T11:18:22.801Z,35.12
2023-07-10T11:19:22.804Z,35.13
2023-07-10T11:20:22.797Z,35.10
2023-07-10T11:21:22.822Z,35.13
2023-07-10T11:22:22.810Z,35.15
2023-07-10T11:23:22.736Z,35.16
2023-07-10T11:24:22.740Z,35.11
2023-07-10T11:25:22.727Z,35.11
2023-07-10T11:26:22.744Z,35.20
2023-07-10T11:27:22.703Z,35.17
2023-07-10T11:28:22.735Z,35.19
2023-07-10T11:29:22.705Z,35.13
2023-07-10T11:30:22.928Z,35.15
2023-07-10T11:31:22.781Z,35.09
2023-07-10T11:32:22.867Z,35.12
2023-07-10T11:33:22.672Z,35.16
2023-07-10T11:34:22.684Z,35.17
2023-07-10T11:35:22.660Z,35.13
2023-07-10T11:36:22.670Z,35.24
2023-07-10T11:37:22.668Z,35.14
2023-07-10T11:38:22.626Z,35.17
2023-07-10T11:39:22.671Z,35.24
2023-07-10T11:40:22.740Z,35.24
2023-07-10T11:41:22.657Z,35.25
2023-07-10T11:42:22.631Z,35.28
2023-07-10T11:43:22.614Z,35.33
2023-07-10T11:44:22.640Z,35.34
2023-07-10T11:45:22.596Z,35.29
2023-07-10T11:46:22.669Z,35.28
2023-07-10T11:47:22.799Z,35.25
2023-07-10T11:48:22.560Z,35.27
2023-07-10T11:49:22.582Z,35.28
2023-07-10T11:50:22.590Z,35.32
2023-07-10T11:51:22.561Z,35.30
2023-07-10T11:52:22.539Z,35.27
2023-07-10T11:53:22.555Z,35.33
2023-07-10T11:54:22.568Z,35.25
2023-07-10T11:55:22.509Z,35.36
2023-07-10T11:56:22.548Z,35.29
2023-07-10T11:57:22.506Z,35.30
2023-07-10T11:58:22.520Z,35.29
2023-07-10T11:59:22.513Z,35.31
2023-07-10T12:00:22.506Z,35.37
2023-07-10T12:01:22.521Z,35.37
2023-07-10T12:02:22.521Z,35.35
2023-07-10T12:03:22.512Z,35.36
2023-07-10T12:04:22.462Z,35.41
2023-07-10T12:05:22.518Z,35.32
2023-07-10T12:06:22.499Z,35.30
2023-07-10T12:07:22.492Z,35.24
2023-07-10T12:08:22.557Z,35.34
2023-07-10T12:09:22.545Z,35.31
2023-07-10T12:10:22.575Z,35.34
2023-07-10T12:11:22.649Z,35.30
2023-07-10T12:12:22.623Z,35.34
2023-07-10T12:13:22.657Z,35.32
2023-07-10T12:14:22.643Z,35.30
2023-07-10T12:15:22.678Z,35.34
2023-07-10T12:16:36.534Z,35.30
2023-07-10T12:17:39.558Z,35.29
2023-07-10T12:18:23.799Z,35.29
2023-07-10T12:19:22.781Z,35.33
2023-07-10T12:20:22.681Z,35.29
2023-07-10T12:21:22.674Z,35.28
2023-07-10T12:22:22.657Z,35.23
2023-07-10T12:23:22.677Z,35.28
2023-07-10T12:24:22.666Z,35.27
2023-07-10T12:25:22.672Z,35.26
2023-07-10T12:26:46.715Z,35.23
2023-07-10T12:28:26.848Z,35.21
2023-07-10T12:29:22.636Z,35.18
2023-07-10T12:30:22.641Z,35.26
2023-07-10T12:31:22.738Z,35.25
2023-07-10T12:32:22.617Z,35.20
2023-07-10T12:33:22.596Z,35.21
2023-07-10T12:34:22.609Z,35.20
2023-07-10T12:35:22.589Z,35.25
2023-07-10T12:36:22.598Z,35.13
2023-07-10T12:37:22.571Z,35.18
2023-07-10T12:38:22.567Z,35.14
2023-07-10T12:39:22.573Z,35.13
2023-07-10T12:40:22.559Z,35.11
2023-07-10T12:41:22.581Z,35.07
2023-07-10T12:42:22.554Z,35.07
2023-07-10T12:43:22.556Z,34.98
2023-07-10T12:44:22.528Z,35.05
2023-07-10T12:45:22.509Z,35.01
2023-07-10T12:46:22.510Z,34.92
2023-07-10T12:47:22.511Z,34.95
2023-07-10T12:48:22.536Z,34.92
2023-07-10T12:49:22.493Z,34.86
2023-07-10T12:50:22.481Z,34.86
2023-07-10T12:51:22.464Z,34.86
2023-07-10T12:52:22.469Z,34.86
2023-07-10T12:53:22.454Z,34.81
2023-07-10T12:54:22.456Z,34.80